• Join FlightAware (Why Join?)
  • Login
  • US Flag 
06:37PM EDT


 

Airport Tracker/Info


-or-


 

Live Flight TrackerFlight Track Log ✈ C-GAWM ✈ 17-Feb-2014 ✈ CZJN - CYWG

Flight Track Log - Related Links

Times and Time Zones

All times are in EST time to prevent confusion due to time zone crossing. See the C-GAWM flight status page for this flight to view local times or setup timezone preferences in your user account.

Time Position Orientation Groundspeed Altitude Reporting Facility
EST Latitude Longitude Course Direction KTS MPH feet Rate Location/Type
01:58PM 51.6500 -100.5500 141° Southeast 180 207 9,000  Level Winnipeg Center
01:59PM 51.6167 -100.5000 137° Southeast 180 207 9,000  Level Winnipeg Center
02:00PM 51.5833 -100.4333 129° Southeast 180 207 9,000  Level Winnipeg Center
02:01PM 51.5333 -100.3833 148° Southeast 180 207 9,000  Level Winnipeg Center
02:02PM 51.5000 -100.3333 137° Southeast 180 207 9,000  Level Winnipeg Center
02:03PM 51.4667 -100.2667 129° Southeast 180 207 9,000  Level Winnipeg Center
02:04PM 51.8922 -100.8951 141° Southeast  Level FlightAware Approximate
02:04PM 51.4333 -100.2167 137° Southeast 180 207 9,000  Level Winnipeg Center
02:05PM 51.4000 -100.1500 129° Southeast 180 207 9,000  Level Winnipeg Center
02:06PM 51.3667 -100.1000 137° Southeast 180 207 9,000  Level Winnipeg Center
02:07PM 51.3333 -100.0500 137° Southeast 190 219 9,000  Level Winnipeg Center
02:08PM 51.2833 -99.9833 140° Southeast 190 219 9,000  Level Winnipeg Center
02:09PM 51.2500 -99.9333 137° Southeast 190 219 9,000  Level Winnipeg Center
02:10PM 51.2000 -99.8833 148° Southeast 200 230 9,000  Level Winnipeg Center
02:11PM 51.1667 -99.8167 129° Southeast 190 219 9,000  Level Winnipeg Center
02:12PM 51.1167 -99.7333 134° Southeast 190 219 9,000  Level Winnipeg Center
02:13PM 51.0833 -99.6833 137° Southeast 190 219 9,000  Level Winnipeg Center
02:14PM 51.0333 -99.6333 148° Southeast 200 230 9,000  Level Winnipeg Center
02:15PM 51.0000 -99.5667 128° Southeast 200 230 9,000  Level Winnipeg Center
02:16PM 50.9500 -99.5167 148° Southeast 200 230 9,000  Level Winnipeg Center
02:17PM 50.9167 -99.4667 137° Southeast 190 219 9,000  Level Winnipeg Center
02:18PM 50.8667 -99.4000 140° Southeast 200 230 9,000  Level Winnipeg Center
02:19PM 50.8500 -99.3500 118° Southeast 200 230 9,000  Level Winnipeg Center
02:20PM 50.8000 -99.3000 148° Southeast 200 230 9,000  Level Winnipeg Center
02:21PM 50.7667 -99.2167 122° Southeast 200 230 9,000  Level Winnipeg Center
02:22PM 50.7167 -99.1667 148° Southeast 200 230 9,000  Level Winnipeg Center
02:23PM 50.6833 -99.1000 128° Southeast 200 230 9,000  Level Winnipeg Center
02:24PM 50.6500 -99.0500 136° Southeast 200 230 9,000  Level Winnipeg Center
02:25PM 50.6000 -99.0000 148° Southeast 200 230 9,000  Level Winnipeg Center
02:26PM 50.5667 -98.9333 128° Southeast 200 230 9,000  Level Winnipeg Center
02:27PM 50.5167 -98.8833 148° Southeast 200 230 9,000  Level Winnipeg Center
02:28PM 50.4667 -98.8000 133° Southeast 200 230 9,000  Level Winnipeg Center
02:29PM 50.4333 -98.7500 136° Southeast 200 230 9,000  Level Winnipeg Center
02:30PM 50.4000 -98.7000 136° Southeast 200 230 9,000  Level Winnipeg Center
02:31PM 50.3833 -98.6167 107° East 210 242 9,000  Level Winnipeg Center
02:32PM 50.3667 -98.5167 105° East 210 242 9,000  Level Winnipeg Center
02:33PM 50.3500 -98.4333 107° East 210 242 9,000 -60 Level Winnipeg Center
02:34PM 50.3333 -98.3500 107° East 210 242 8,900 -60 Descending Winnipeg Center
02:35PM 50.3167 -98.2500 105° East 210 242 8,900  Level Winnipeg Center
02:36PM 50.3000 -98.1667 107° East 210 242 8,900  Level Winnipeg Center
02:38PM 50.2833 -97.9833 98° East 210 242 9,000  Climbing Winnipeg Center
02:39PM 50.2667 -97.9000 107° East 210 242 9,000  Level Winnipeg Center
02:40PM 50.2333 -97.8333 128° Southeast 200 230 9,000 -120 Level Winnipeg Center
02:41PM 50.2000 -97.7833 136° Southeast 210 242 8,800 -360 Descending Winnipeg Center
02:42PM 50.1500 -97.7000 133° Southeast 210 242 8,300 -540 Descending Winnipeg Center
02:43PM 50.1167 -97.6500 136° Southeast 210 242 7,800 -540 Descending Winnipeg Center
02:44PM 50.0667 -97.5833 139° Southeast 210 242 7,300 -660 Descending Winnipeg Center
02:45PM 50.0333 -97.5167 128° Southeast 210 242 6,500 -720 Descending Winnipeg Center
02:46PM 49.9833 -97.4667 147° Southeast 210 242 5,900 -720 Descending Winnipeg Center
02:47PM 49.9333 -97.4333 157° South 200 230 5,100 -720 Descending Winnipeg Center
02:48PM 49.8833 -97.4000 157° South 190 219 4,500 -840 Descending Winnipeg Center
02:49PM 49.8333 -97.3833 168° South 190 219 3,500 -900 Descending Winnipeg Center
02:50PM 49.8000 -97.3333 136° Southeast 190 219 2,700 -660 Descending Winnipeg Center
02:51PM 49.8167 -97.2500 73° East 170 196 2,200 -600 Descending Winnipeg Center
02:52PM 49.8500 -97.2500 360° North 110 127 1,600 -720 Descending Winnipeg Center
02:53PM 49.8833 -97.2333 18° North 110 127 800 -840 Descending Winnipeg Center